Nashville, Tennessee
Traffic Map
Current Weather Conditions
Nashville, Tennessee
Clear
Clear
14°
Feels Like: 14°
Wind Chill: 14° Ceiling: Unl
Heat Index: 14° Visibility: 10mi
Dew Point: Wind: 5mph
Humidity: 47% Direction: 90° (E)
Pressure: 30.15in Gusts: 0mph
Raw Report DataKBNA 301653Z 09004KT 10SM CLR 14/03 A3015 RMK AO2 SLP208 T01440033
Traffic Incident Summary
Active as of:
Severity:
Category:
InformationThere was an issue retrieving the traffic information for this location. Please try a different location or try again shortly.
Advertisements
Track Severe Weather on mobile